createdAt,value
2023-04-01T00:01:03.289Z,10.00
2023-04-01T00:03:32.023Z,10.00
2023-04-01T00:06:00.586Z,10.00
2023-04-01T00:08:28.667Z,9.90
2023-04-01T00:10:58.139Z,9.80
2023-04-01T00:13:27.336Z,9.80
2023-04-01T00:15:56.637Z,9.80
2023-04-01T00:18:25.839Z,9.80
2023-04-01T00:20:53.696Z,9.70
2023-04-01T00:23:21.768Z,9.70
2023-04-01T00:25:49.496Z,9.70
2023-04-01T00:28:19.010Z,9.70
2023-04-01T00:30:46.810Z,9.80
2023-04-01T00:33:14.395Z,9.70
2023-04-01T00:35:41.655Z,9.70
2023-04-01T00:38:09.328Z,9.70
2023-04-01T00:40:39.770Z,9.70
2023-04-01T00:43:20.360Z,9.70
2023-04-01T00:45:49.702Z,9.60
2023-04-01T00:48:21.524Z,9.60
2023-04-01T00:51:10.369Z,9.60
2023-04-01T00:53:42.276Z,9.60
2023-04-01T00:56:30.670Z,9.60
2023-04-01T00:59:06.747Z,9.60
2023-04-01T01:01:35.847Z,9.60
2023-04-01T01:04:03.781Z,9.60
2023-04-01T01:06:49.228Z,9.60
2023-04-01T01:09:51.648Z,9.60
2023-04-01T01:12:30.634Z,9.60
2023-04-01T01:15:20.219Z,9.50
2023-04-01T01:18:11.539Z,9.40
2023-04-01T01:21:21.076Z,9.40
2023-04-01T01:24:22.391Z,9.40
2023-04-01T01:26:56.225Z,9.40
2023-04-01T01:29:53.181Z,9.40
2023-04-01T01:32:50.651Z,9.40
2023-04-01T01:35:18.288Z,9.50
2023-04-01T01:37:47.858Z,9.40
2023-04-01T01:40:16.646Z,9.40
2023-04-01T01:42:54.646Z,9.40
2023-04-01T01:45:25.983Z,9.40
2023-04-01T01:47:55.330Z,9.30
2023-04-01T01:50:23.584Z,9.30
2023-04-01T01:52:51.182Z,9.30
2023-04-01T01:55:36.728Z,9.30
2023-04-01T01:58:16.340Z,9.30
2023-04-01T02:00:48.163Z,9.20
2023-04-01T02:03:18.027Z,9.30
2023-04-01T02:05:45.987Z,9.20
2023-04-01T02:08:22.445Z,9.20
2023-04-01T02:11:11.628Z,9.10
2023-04-01T02:13:47.308Z,9.10
2023-04-01T02:16:44.490Z,9.00
2023-04-01T02:19:14.198Z,8.90
2023-04-01T02:21:43.267Z,8.90
2023-04-01T02:24:15.022Z,8.90
2023-04-01T02:26:42.656Z,8.80
2023-04-01T02:29:12.635Z,8.70
2023-04-01T02:31:40.690Z,8.60
2023-04-01T02:34:08.444Z,8.40
2023-04-01T02:36:37.411Z,8.30
2023-04-01T02:39:06.606Z,8.40
2023-04-01T02:41:40.826Z,8.40
2023-04-01T02:44:09.827Z,8.40
2023-04-01T02:46:38.632Z,8.40
2023-04-01T02:49:06.461Z,8.40
2023-04-01T02:51:34.573Z,8.50
2023-04-01T02:54:02.162Z,8.50
2023-04-01T02:56:29.797Z,8.50
2023-04-01T02:58:57.352Z,8.50
2023-04-01T03:01:24.772Z,8.60
2023-04-01T03:03:52.305Z,8.60
2023-04-01T03:06:19.622Z,8.70
2023-04-01T03:08:47.673Z,8.80
2023-04-01T03:11:15.313Z,8.80
2023-04-01T03:13:42.879Z,8.80
2023-04-01T03:16:11.395Z,8.80
2023-04-01T03:18:38.955Z,8.80
2023-04-01T03:21:20.971Z,8.80
2023-04-01T03:23:48.513Z,8.90
2023-04-01T03:26:16.525Z,8.90
2023-04-01T03:28:44.778Z,8.90
2023-04-01T03:31:12.196Z,8.90
2023-04-01T03:33:46.313Z,8.90
2023-04-01T03:36:14.142Z,8.90
2023-04-01T03:38:43.239Z,9.00
2023-04-01T03:41:14.805Z,9.00
2023-04-01T03:43:42.830Z,9.00
2023-04-01T03:46:10.215Z,9.10
2023-04-01T03:48:38.108Z,9.00
2023-04-01T03:51:08.821Z,9.00
2023-04-01T03:53:36.430Z,9.00
2023-04-01T03:56:07.736Z,9.00
2023-04-01T03:58:37.894Z,9.00
2023-04-01T04:01:19.211Z,9.00
2023-04-01T04:03:50.165Z,9.00
2023-04-01T04:06:19.487Z,9.00
2023-04-01T04:08:47.516Z,9.00
2023-04-01T04:11:15.053Z,9.00
2023-04-01T04:13:44.561Z,9.00
2023-04-01T04:16:12.184Z,8.90
2023-04-01T04:18:44.196Z,8.90
2023-04-01T04:21:16.096Z,8.90
2023-04-01T04:23:43.876Z,8.90
2023-04-01T04:26:13.735Z,8.90
2023-04-01T04:28:41.535Z,8.70
2023-04-01T04:31:09.182Z,8.70
2023-04-01T04:33:38.265Z,8.70
2023-04-01T04:36:06.057Z,8.70
2023-04-01T04:38:33.803Z,8.70
2023-04-01T04:41:01.138Z,8.50
2023-04-01T04:43:28.800Z,8.40
2023-04-01T04:45:57.376Z,8.40
2023-04-01T04:48:24.967Z,8.30
2023-04-01T04:50:52.339Z,8.40
2023-04-01T04:53:23.350Z,8.50
2023-04-01T04:55:51.266Z,8.60
2023-04-01T04:58:28.540Z,8.60
2023-04-01T05:00:56.428Z,8.70
2023-04-01T05:03:33.212Z,8.80
2023-04-01T05:06:00.655Z,8.90
2023-04-01T05:08:28.225Z,9.00
2023-04-01T05:10:55.498Z,9.10
2023-04-01T05:13:23.144Z,9.20
2023-04-01T05:15:50.465Z,9.30
2023-04-01T05:18:18.340Z,9.30
2023-04-01T05:20:54.106Z,9.40
2023-04-01T05:23:22.794Z,9.50
2023-04-01T05:25:52.034Z,9.50
2023-04-01T05:28:21.258Z,9.60
2023-04-01T05:30:48.607Z,9.50
2023-04-01T05:33:23.387Z,9.60
2023-04-01T05:35:51.185Z,9.60
2023-04-01T05:38:18.626Z,9.60
2023-04-01T05:40:46.687Z,9.50
2023-04-01T05:43:14.318Z,9.50
2023-04-01T05:45:43.078Z,9.60
2023-04-01T05:48:13.076Z,9.60
2023-04-01T05:50:42.895Z,9.50
2023-04-01T05:53:11.900Z,9.50
2023-04-01T05:55:42.281Z,9.60
2023-04-01T05:58:09.739Z,9.60
2023-04-01T06:00:38.604Z,9.60
2023-04-01T06:03:06.172Z,9.50
2023-04-01T06:05:41.055Z,9.60
2023-04-01T06:08:20.331Z,9.70
2023-04-01T06:11:00.781Z,9.80
2023-04-01T06:13:46.304Z,9.80
2023-04-01T06:16:32.462Z,10.00
2023-04-01T06:19:37.225Z,9.90
2023-04-01T06:22:31.060Z,9.90
2023-04-01T06:25:45.917Z,10.00
2023-04-01T06:28:22.145Z,9.90
2023-04-01T06:31:10.754Z,10.00
2023-04-01T06:33:56.875Z,9.90
2023-04-01T06:36:33.188Z,10.10
2023-04-01T06:39:19.266Z,10.20
2023-04-01T06:42:23.454Z,10.20
2023-04-01T06:45:01.015Z,10.20
2023-04-01T06:47:53.276Z,10.20
2023-04-01T06:51:02.020Z,10.10
2023-04-01T06:54:06.300Z,10.00
2023-04-01T06:57:35.712Z,10.10
2023-04-01T07:00:33.809Z,10.10
2023-04-01T07:03:22.957Z,10.00
2023-04-01T07:05:51.609Z,10.20
2023-04-01T07:08:25.529Z,10.30
2023-04-01T07:10:57.811Z,10.20
2023-04-01T07:13:50.971Z,10.10
2023-04-01T07:16:31.434Z,10.20
2023-04-01T07:19:31.034Z,10.10
2023-04-01T07:22:41.776Z,10.50
2023-04-01T07:25:59.709Z,10.70
2023-04-01T07:28:35.180Z,10.80
2023-04-01T07:31:36.975Z,10.80
2023-04-01T07:34:11.466Z,10.90
2023-04-01T07:37:02.456Z,11.10
2023-04-01T07:39:36.465Z,11.40
2023-04-01T07:42:29.270Z,11.30
2023-04-01T07:45:08.228Z,11.20
2023-04-01T07:48:14.968Z,11.20
2023-04-01T07:51:03.998Z,11.50
2023-04-01T07:53:55.451Z,11.80
2023-04-01T07:56:40.710Z,11.90
2023-04-01T07:59:15.914Z,11.90
2023-04-01T08:02:15.196Z,11.80
2023-04-01T08:05:11.427Z,11.60
2023-04-01T08:07:38.850Z,11.40
2023-04-01T08:10:44.906Z,11.20
2023-04-01T08:14:03.694Z,10.90
2023-04-01T08:17:17.820Z,10.90
2023-04-01T08:20:24.090Z,10.80
2023-04-01T08:23:03.903Z,10.70
2023-04-01T08:25:41.670Z,10.80
2023-04-01T08:28:18.722Z,10.80
2023-04-01T08:30:52.136Z,10.80
2023-04-01T08:33:31.166Z,10.70
2023-04-01T08:36:37.148Z,10.80
2023-04-01T08:39:21.486Z,10.80
2023-04-01T08:42:10.575Z,11.00
2023-04-01T08:45:03.562Z,10.80
2023-04-01T08:47:41.255Z,10.60
2023-04-01T08:50:13.945Z,10.50
2023-04-01T08:53:10.996Z,10.60
2023-04-01T08:55:53.429Z,10.80
2023-04-01T08:58:31.093Z,10.70
2023-04-01T09:01:28.613Z,10.60
2023-04-01T09:04:14.801Z,10.60
2023-04-01T09:07:01.106Z,10.50
2023-04-01T09:09:40.926Z,10.40
2023-04-01T09:12:46.856Z,10.50
2023-04-01T09:15:32.766Z,10.30
2023-04-01T09:18:42.080Z,10.30
2023-04-01T09:21:24.518Z,10.90
2023-04-01T09:24:27.556Z,11.30
2023-04-01T09:27:05.909Z,11.60
2023-04-01T09:29:59.791Z,12.10
2023-04-01T09:32:41.284Z,12.40
2023-04-01T09:35:23.927Z,13.00
2023-04-01T09:38:21.468Z,12.60
2023-04-01T09:41:14.487Z,12.90
2023-04-01T09:44:10.305Z,12.90
2023-04-01T09:47:10.729Z,12.70
2023-04-01T09:50:07.967Z,13.00
2023-04-01T09:53:01.484Z,12.50
2023-04-01T09:55:56.275Z,12.80
2023-04-01T09:58:29.686Z,13.00
2023-04-01T10:01:53.676Z,13.30
2023-04-01T10:04:54.947Z,13.40
2023-04-01T10:07:38.788Z,13.30
2023-04-01T10:10:31.084Z,13.70
2023-04-01T10:13:10.340Z,13.60
2023-04-01T10:15:57.946Z,13.00
2023-04-01T10:18:59.824Z,12.80
2023-04-01T10:21:56.120Z,11.60
2023-04-01T10:24:32.906Z,11.30
2023-04-01T10:27:45.887Z,11.10
2023-04-01T10:31:03.475Z,10.60
2023-04-01T10:34:13.135Z,10.30
2023-04-01T10:36:57.220Z,10.70
2023-04-01T10:39:56.485Z,11.60
2023-04-01T10:42:50.575Z,12.30
2023-04-01T10:46:21.044Z,12.70
2023-04-01T10:49:06.357Z,12.40
2023-04-01T10:52:05.784Z,12.50
2023-04-01T10:55:00.644Z,12.30
2023-04-01T10:57:55.543Z,12.30
2023-04-01T11:01:05.985Z,12.30
2023-04-01T11:04:35.670Z,12.00
2023-04-01T11:08:06.181Z,11.30
2023-04-01T11:10:47.405Z,10.30
2023-04-01T11:13:27.458Z,9.50
2023-04-01T11:16:18.602Z,9.10
2023-04-01T11:19:25.293Z,9.30
2023-04-01T11:21:59.079Z,9.70
2023-04-01T11:24:58.231Z,9.70
2023-04-01T11:27:59.827Z,9.70
2023-04-01T11:31:05.725Z,9.80
2023-04-01T11:33:34.989Z,9.90
2023-04-01T11:36:08.957Z,10.30
2023-04-01T11:39:13.319Z,10.40
2023-04-01T11:42:39.757Z,10.00
2023-04-01T11:46:11.167Z,10.30
2023-04-01T11:48:56.042Z,11.00
2023-04-01T11:51:44.068Z,11.60
2023-04-01T11:54:14.292Z,12.20
2023-04-01T11:57:07.022Z,12.70
2023-04-01T11:59:52.636Z,12.90
2023-04-01T12:02:29.000Z,12.00
2023-04-01T12:05:05.428Z,11.40
2023-04-01T12:07:54.351Z,11.30
2023-04-01T12:10:29.095Z,11.00
2023-04-01T12:13:12.919Z,10.90
2023-04-01T12:15:43.365Z,10.90
2023-04-01T12:18:27.298Z,10.80
2023-04-01T12:21:26.468Z,10.70
2023-04-01T12:24:03.473Z,10.70
2023-04-01T12:27:02.176Z,10.60
2023-04-01T12:29:54.260Z,10.60
2023-04-01T12:32:45.525Z,10.50
2023-04-01T12:35:19.443Z,10.80
2023-04-01T12:38:06.978Z,11.00
2023-04-01T12:41:03.420Z,11.40
2023-04-01T12:43:57.077Z,11.40
2023-04-01T12:46:33.419Z,11.30
2023-04-01T12:49:27.427Z,11.40
2023-04-01T12:52:09.096Z,11.60
2023-04-01T12:55:01.431Z,11.90
2023-04-01T12:57:58.660Z,12.10
2023-04-01T13:00:49.285Z,12.40
2023-04-01T13:03:38.902Z,12.20
2023-04-01T13:06:25.214Z,11.60
2023-04-01T13:09:17.977Z,11.00
2023-04-01T13:12:01.047Z,10.90
2023-04-01T13:14:58.712Z,10.80
2023-04-01T13:17:59.033Z,10.70
2023-04-01T13:20:48.151Z,10.60
2023-04-01T13:23:27.562Z,10.60
2023-04-01T13:26:15.130Z,10.60
2023-04-01T13:28:55.644Z,10.40
2023-04-01T13:31:42.512Z,10.40
2023-04-01T13:34:47.731Z,10.40
2023-04-01T13:37:14.950Z,10.30
2023-04-01T13:40:00.475Z,10.10
2023-04-01T13:42:39.135Z,10.10
2023-04-01T13:45:18.080Z,10.20
2023-04-01T13:47:57.089Z,10.20
2023-04-01T13:50:33.233Z,10.50
2023-04-01T13:53:09.859Z,10.60
2023-04-01T13:55:48.972Z,10.80
2023-04-01T13:58:35.110Z,10.70
2023-04-01T14:01:02.654Z,11.20
2023-04-01T14:04:07.644Z,11.40
2023-04-01T14:06:59.846Z,11.00
2023-04-01T14:09:38.940Z,10.90
2023-04-01T14:12:51.286Z,10.90
2023-04-01T14:15:37.178Z,11.00
2023-04-01T14:18:26.384Z,10.90
2023-04-01T14:21:12.504Z,10.70
2023-04-01T14:24:21.851Z,10.60
2023-04-01T14:26:54.788Z,10.60
2023-04-01T14:29:48.124Z,10.50
2023-04-01T14:32:45.393Z,10.40
2023-04-01T14:35:33.036Z,10.30
2023-04-01T14:38:12.478Z,10.10
2023-04-01T14:40:57.491Z,10.00
2023-04-01T14:43:33.550Z,10.00
2023-04-01T14:46:08.339Z,9.90
2023-04-01T14:48:52.188Z,9.80
2023-04-01T14:51:31.432Z,9.60
2023-04-01T14:54:32.695Z,9.60
2023-04-01T14:57:33.122Z,9.30
2023-04-01T15:00:19.045Z,9.30
2023-04-01T15:03:21.675Z,9.20
2023-04-01T15:06:13.282Z,9.10
2023-04-01T15:09:04.686Z,9.00
2023-04-01T15:11:55.852Z,8.90
2023-04-01T15:14:54.864Z,8.80
2023-04-01T15:17:31.302Z,8.80
2023-04-01T15:20:30.982Z,8.80
2023-04-01T15:23:31.943Z,8.70
2023-04-01T15:26:18.003Z,8.60
2023-04-01T15:29:11.069Z,8.40
2023-04-01T15:31:51.569Z,8.40
2023-04-01T15:34:24.712Z,8.30
2023-04-01T15:37:02.625Z,8.30
2023-04-01T15:39:44.590Z,8.40
2023-04-01T15:42:27.466Z,8.40
2023-04-01T15:45:07.205Z,8.40
2023-04-01T15:47:41.070Z,8.40
2023-04-01T15:50:32.369Z,8.30
2023-04-01T15:53:32.578Z,8.30
2023-04-01T15:56:58.489Z,8.30
2023-04-01T15:59:57.579Z,8.20
2023-04-01T16:02:40.197Z,8.20
2023-04-01T16:05:10.838Z,8.30
2023-04-01T16:07:44.744Z,8.20
2023-04-01T16:10:20.768Z,8.20
2023-04-01T16:13:26.289Z,8.10
2023-04-01T16:16:18.222Z,8.00
2023-04-01T16:19:11.986Z,8.00
2023-04-01T16:21:53.490Z,7.90
2023-04-01T16:24:39.462Z,7.90
2023-04-01T16:27:28.364Z,7.90
2023-04-01T16:30:33.425Z,7.80
2023-04-01T16:33:14.040Z,7.90
2023-04-01T16:35:56.994Z,8.00
2023-04-01T16:38:40.681Z,7.90
2023-04-01T16:41:17.934Z,7.80
2023-04-01T16:43:57.195Z,7.90
2023-04-01T16:46:41.731Z,7.90
2023-04-01T16:49:12.163Z,7.80
2023-04-01T16:51:45.998Z,7.80
2023-04-01T16:54:22.686Z,7.80
2023-04-01T16:57:02.999Z,7.90
2023-04-01T16:59:36.731Z,7.90
2023-04-01T17:02:10.071Z,7.80
2023-04-01T17:04:55.132Z,7.80
2023-04-01T17:07:37.866Z,7.80
2023-04-01T17:10:39.356Z,7.80
2023-04-01T17:13:09.936Z,7.70
2023-04-01T17:16:04.818Z,7.70
2023-04-01T17:18:41.458Z,7.70
2023-04-01T17:21:14.767Z,7.70
2023-04-01T17:23:54.018Z,7.70
2023-04-01T17:26:32.502Z,7.80
2023-04-01T17:29:07.501Z,7.70
2023-04-01T17:32:04.197Z,7.70
2023-04-01T17:34:52.353Z,7.60
2023-04-01T17:37:56.319Z,7.60
2023-04-01T17:40:38.492Z,7.70
2023-04-01T17:43:24.402Z,7.70
2023-04-01T17:46:03.098Z,7.70
2023-04-01T17:48:57.797Z,7.60
2023-04-01T17:51:40.900Z,7.50
2023-04-01T17:54:33.072Z,7.50
2023-04-01T17:57:25.408Z,7.50
2023-04-01T18:00:13.108Z,7.50
2023-04-01T18:03:25.137Z,7.50
2023-04-01T18:06:11.496Z,7.50
2023-04-01T18:09:03.723Z,7.50
2023-04-01T18:12:01.870Z,7.50
2023-04-01T18:14:38.140Z,7.60
2023-04-01T18:17:28.641Z,7.70
2023-04-01T18:20:04.949Z,7.40
2023-04-01T18:23:16.114Z,7.40
2023-04-01T18:25:49.339Z,7.30
2023-04-01T18:28:44.952Z,7.30
2023-04-01T18:31:15.300Z,7.30
2023-04-01T18:34:04.919Z,7.30
2023-04-01T18:36:45.118Z,7.30
2023-04-01T18:39:26.913Z,7.20
2023-04-01T18:42:44.751Z,7.30
2023-04-01T18:45:34.975Z,7.20
2023-04-01T18:48:12.209Z,7.10
2023-04-01T18:50:56.042Z,7.20
2023-04-01T18:53:48.077Z,7.30
2023-04-01T18:56:31.573Z,7.20
2023-04-01T18:59:17.849Z,7.30
2023-04-01T19:02:19.672Z,7.30
2023-04-01T19:05:11.424Z,7.20
2023-04-01T19:07:42.797Z,7.20
2023-04-01T19:10:43.701Z,7.30
2023-04-01T19:13:19.787Z,7.30
2023-04-01T19:16:25.523Z,7.20
2023-04-01T19:19:12.149Z,7.20
2023-04-01T19:21:48.026Z,7.30
2023-04-01T19:24:52.702Z,7.30
2023-04-01T19:27:29.288Z,7.30
2023-04-01T19:30:21.275Z,7.30
2023-04-01T19:33:19.663Z,7.30
2023-04-01T19:36:20.715Z,7.30
2023-04-01T19:39:04.876Z,7.30
2023-04-01T19:41:36.198Z,7.20
2023-04-01T19:44:27.295Z,7.20
2023-04-01T19:47:29.738Z,7.10
2023-04-01T19:50:30.878Z,7.10
2023-04-01T19:53:07.359Z,7.10
2023-04-01T19:55:47.751Z,7.00
2023-04-01T19:58:30.153Z,6.90
2023-04-01T20:01:01.758Z,6.80
2023-04-01T20:03:56.457Z,6.80
2023-04-01T20:06:47.605Z,6.90
2023-04-01T20:09:27.224Z,6.80
2023-04-01T20:12:10.175Z,6.80
2023-04-01T20:14:47.520Z,6.80
2023-04-01T20:17:20.607Z,6.80
2023-04-01T20:20:11.968Z,6.80
2023-04-01T20:22:52.716Z,6.80
2023-04-01T20:25:33.515Z,6.70
2023-04-01T20:28:12.530Z,6.70
2023-04-01T20:31:15.078Z,6.70
2023-04-01T20:33:45.308Z,6.70
2023-04-01T20:36:15.857Z,6.60
2023-04-01T20:39:04.537Z,6.60
2023-04-01T20:41:44.624Z,6.50
2023-04-01T20:44:47.753Z,6.50
2023-04-01T20:47:27.092Z,6.40
2023-04-01T20:50:21.482Z,6.40
2023-04-01T20:53:30.679Z,6.40
2023-04-01T20:56:17.049Z,6.40
2023-04-01T20:59:09.521Z,6.30
2023-04-01T21:01:48.568Z,6.40
2023-04-01T21:04:34.736Z,6.40
2023-04-01T21:07:17.205Z,6.30
2023-04-01T21:10:12.130Z,6.50
2023-04-01T21:12:58.007Z,6.40
2023-04-01T21:15:46.936Z,6.20
2023-04-01T21:18:45.501Z,6.20
2023-04-01T21:21:48.884Z,6.00
2023-04-01T21:24:43.660Z,6.10
2023-04-01T21:27:42.941Z,6.00
2023-04-01T21:30:46.725Z,5.90
2023-04-01T21:34:06.604Z,5.90
2023-04-01T21:36:54.484Z,5.80
2023-04-01T21:39:54.738Z,5.70
2023-04-01T21:42:45.663Z,5.70
2023-04-01T21:45:13.310Z,5.70
2023-04-01T21:48:23.052Z,5.60
2023-04-01T21:51:20.101Z,5.60
2023-04-01T21:54:19.036Z,5.60
2023-04-01T21:57:05.140Z,5.60
2023-04-01T21:59:32.301Z,5.70
2023-04-01T22:02:16.087Z,5.60
2023-04-01T22:05:11.314Z,5.60
2023-04-01T22:07:38.865Z,5.60
2023-04-01T22:10:18.539Z,5.50
2023-04-01T22:13:06.368Z,5.60
2023-04-01T22:16:10.513Z,5.60
2023-04-01T22:19:08.020Z,5.60
2023-04-01T22:22:21.852Z,5.50
2023-04-01T22:24:58.686Z,5.40
2023-04-01T22:27:39.934Z,5.40
2023-04-01T22:30:32.666Z,5.30
2023-04-01T22:33:36.842Z,5.40
2023-04-01T22:36:14.990Z,5.30
2023-04-01T22:38:58.754Z,5.30
2023-04-01T22:41:54.644Z,5.20
2023-04-01T22:44:21.890Z,5.00
2023-04-01T22:47:02.489Z,5.10
2023-04-01T22:49:40.165Z,5.00
2023-04-01T22:52:21.326Z,5.00
2023-04-01T22:54:59.358Z,5.00
2023-04-01T22:58:05.698Z,4.90
2023-04-01T23:00:43.037Z,4.90
2023-04-01T23:03:19.068Z,4.90
2023-04-01T23:05:52.047Z,4.80
2023-04-01T23:08:27.982Z,4.80
2023-04-01T23:11:03.458Z,4.80
2023-04-01T23:13:38.862Z,4.60
2023-04-01T23:16:08.158Z,4.60
2023-04-01T23:18:56.876Z,4.60
2023-04-01T23:21:38.707Z,4.60
2023-04-01T23:24:21.414Z,4.60
2023-04-01T23:27:23.821Z,4.70
2023-04-01T23:29:52.102Z,4.70
2023-04-01T23:32:27.186Z,4.60
2023-04-01T23:35:01.621Z,4.60
2023-04-01T23:37:28.921Z,4.70
2023-04-01T23:39:59.384Z,4.70
2023-04-01T23:42:30.314Z,4.60
2023-04-01T23:45:02.285Z,4.60
2023-04-01T23:47:35.544Z,4.50
2023-04-01T23:50:10.478Z,4.50
2023-04-01T23:52:47.633Z,4.50
2023-04-01T23:55:28.452Z,4.50
2023-04-01T23:58:08.188Z,4.50
